ADDS METAR Data INFO
IDs: Format: Raw Decoded Include TAF

Data at: 0731 UTC 16 Jan 2018

METAR for:KJCT (Junction/Kimble Cnty, TX, US)
Text:KJCT 160651Z AUTO 02015G23KT 10SM OVC028 00/M11 A3053 RMK AO2 PK WND 02029/0611 SLP326 T00001111
Temperature: 0.0°C ( 32°F)
Dewpoint:-11.1°C ( 12°F) [RH = 43%]
Pressure (altimeter):30.53 inches Hg (1033.9 mb) [Sea level pressure: 1032.6 mb]
Winds:from the NNE (20 degrees) at 17 MPH (15 knots; 7.7 m/s) gusting to 26 MPH (23 knots; 11.8 m/s)
Visibility:10 or more sm (16+ km)
Ceiling:2800 feet AGL
Clouds: overcast cloud deck at 2800 feet AGL
QC Flag:automated observation with no human augmentation